• Join FlightAware (Why Join?)
  • Login
  • US Flag 
03:14AM EDT


 

Airport Tracker/Info


-or-


 

Live Flight TrackerFlight Track Log ✈ FLG3931 ✈ 07-Jul-2013 ✈ KMBS - KMSP

Flight Track Log - Related Links

Times and Time Zones

All times are in EDT time to prevent confusion due to time zone crossing. See the FLG3931 flight status page for this flight to view local times or setup timezone preferences in your user account.

Time Position Orientation Groundspeed Altitude Reporting Facility
EDT Latitude Longitude Course Direction KTS MPH feet Rate Location/Type
07:15AM 43.6480 -84.4365 299° West  Level FlightAware Approximate
07:15AM 43.5614 -84.2478 298° West 230 265 28,000  Level Minneapolis Center
07:16AM 43.6963 -84.5574 299° West  Level FlightAware Approximate
07:16AM 43.5864 -84.3125 298° West 262 302 7,300  Level Minneapolis Center
07:17AM 43.7362 -84.6841 293° West  Level FlightAware Approximate
07:17AM 43.6286 -84.4264 297° West 275 316 10,300  Level Minneapolis Center
07:18AM 43.7764 -84.8107 296° West  Level FlightAware Approximate
07:18AM 43.6650 -84.5275 296° West 288 331 12,100  Level Minneapolis Center
07:19AM 43.8221 -84.9399 296° West  Level FlightAware Approximate
07:19AM 43.7058 -84.6417 296° West 317 365 13,200  Level Minneapolis Center
07:20AM 43.8677 -85.0693 298° West  Level FlightAware Approximate
07:20AM 43.7483 -84.7647 296° West 346 398 14,500  Level Minneapolis Center
07:21AM 43.7828 -84.8997 290° West 366 421 16,100 1,380 Climbing Minneapolis Center
07:22AM 43.8161 -85.0331 289° West 370 426 17,400 1,080 Climbing Minneapolis Center
07:23AM 43.8506 -85.1708 289° West 377 434 18,300 960 Climbing Minneapolis Center
07:24AM 43.8836 -85.3131 288° West 386 444 19,400 1,200 Climbing Minneapolis Center
07:25AM 43.8703 -85.4622 263° West 392 451 20,800 1,440 Climbing Minneapolis Center
07:26AM 43.8608 -85.6017 265° West 377 434 22,400 1,140 Climbing Minneapolis Center
07:27AM 43.8475 -85.7458 263° West 376 433 23,200 780 Climbing Minneapolis Center
07:28AM 43.8319 -85.8931 262° West 385 443 24,000 660 Climbing Minneapolis Center
07:29AM 43.8303 -86.0469 269° West 407 468 24,600 480 Climbing Minneapolis Center
07:30AM 43.8633 -86.1950 287° West 410 472 25,000 180 Climbing Minneapolis Center
07:31AM 43.8989 -86.3519 288° West 423 487 25,000 180 Level Minneapolis Center
07:32AM 43.9344 -86.5139 287° West 439 505 25,400 480 Climbing Minneapolis Center
07:33AM 43.9706 -86.6756 287° West 441 507 26,000 540 Climbing Minneapolis Center
07:34AM 44.0125 -86.8686 287° West 438 504 26,600 540 Climbing Minneapolis Center
07:35AM 44.0469 -87.0317 286° West 441 507 27,100 480 Climbing Minneapolis Center
07:36AM 44.0817 -87.1925 287° West 439 505 27,600 420 Climbing Minneapolis Center
07:37AM 44.1092 -87.3194 287° West 436 502 28,000 180 Climbing Minneapolis Center
07:38AM 44.1494 -87.5106 286° West 441 507 28,000  Level Minneapolis Center
07:39AM 44.1833 -87.6772 286° West 446 513 28,000  Level Minneapolis Center
07:40AM 44.2114 -87.8147 286° West 445 512 28,000  Level Minneapolis Center
07:41AM 44.2519 -88.0069 286° West 443 510 28,000  Level Minneapolis Center
07:42AM 44.2856 -88.1714 286° West 443 510 28,000  Level Minneapolis Center
07:43AM 44.3214 -88.3600 285° West 435 501 28,000  Level Minneapolis Center
07:44AM 44.3550 -88.5236 286° West 437 503 28,000  Level Minneapolis Center
07:45AM 44.3872 -88.6878 285° West 438 504 28,000  Level Minneapolis Center
07:46AM 44.4186 -88.8553 285° West 443 510 28,000  Level Minneapolis Center
07:47AM 44.4508 -89.0203 285° West 443 510 28,000  Level Minneapolis Center
07:48AM 44.4825 -89.1864 285° West 442 509 28,000  Level Minneapolis Center
07:49AM 44.5139 -89.3492 285° West 438 504 28,000  Level Minneapolis Center
07:50AM 44.5397 -89.4842 285° West 434 499 28,000  Level Minneapolis Center
07:51AM 44.5764 -89.6758 285° West 434 499 28,000  Level Minneapolis Center
07:52AM 44.6069 -89.8411 285° West 439 505 28,000  Level Minneapolis Center
07:53AM 44.6419 -90.0336 284° West 438 504 28,000  Level Minneapolis Center
07:54AM 44.6728 -90.1969 285° West 435 501 28,000  Level Minneapolis Center
07:55AM 44.7114 -90.4167 284° West 434 499 28,000  Level Minneapolis Center
07:56AM 44.7378 -90.5628 284° West 433 498 28,000  Level Minneapolis Center
07:57AM 44.7672 -90.7228 285° West 426 490 28,000  Level Minneapolis Center
07:58AM 44.7958 -90.8858 284° West 430 495 28,000 -240 Level Minneapolis Center
07:59AM 44.8303 -91.0814 284° West 431 496 27,500 -1,320 Descending Minneapolis Center
08:00AM 44.8583 -91.2444 284° West 431 496 25,300 -1,980 Descending Minneapolis Center
08:02AM 44.8850 -91.3981 284° West 417 480 23,100 -1,980 Descending Minneapolis Center
08:03AM 44.9108 -91.5419 284° West 392 451 20,900 -2,220 Descending Minneapolis Center
08:04AM 44.9425 -91.7058 285° West 368 423 18,200 -2,220 Descending Minneapolis Center
08:05AM 44.9728 -91.8689 285° West 362 417 16,000 -1,920 Descending Minneapolis Center
08:06AM 44.9983 -92.0044 285° West 359 413 14,300 -1,500 Descending Minneapolis Center
08:07AM 45.0181 -92.1103 285° West 353 406 13,000 -1,620 Descending Minneapolis Center
08:08AM 45.0486 -92.2881 284° West 335 386 11,100 -1,020 Descending Minneapolis Center
08:09AM 45.0297 -92.4122 258° West 323 372 11,000 -60 Descending Minneapolis Center
08:10AM 45.0108 -92.5353 258° West 323 372 11,000  Level Minneapolis Center
08:11AM 44.9911 -92.6583 257° West 322 371 11,000  Level Minneapolis Center
08:12AM 44.9711 -92.7808 257° West 322 371 11,000  Level Minneapolis Center
08:13AM 44.9517 -92.9028 257° West 320 368 11,000 -540 Level Minneapolis Center
08:14AM 44.9331 -93.0164 257° West 301 346 10,000 -1,440 Descending Minneapolis Center
08:15AM 44.9456 -93.1128 280° West 275 316 8,100 -1,500 Descending Minneapolis Center
08:16AM 44.9792 -93.1947 300° West 240 276 7,000 -1,320 Descending Minneapolis Center
08:17AM 44.9869 -93.2489 281° West 188 216 5,500 -1,500 Descending Minneapolis Center